createdAt,value
2022-11-28T00:00:18.153Z,5.9
2022-11-28T00:01:18.259Z,5.8
2022-11-28T00:02:18.410Z,5.8
2022-11-28T00:03:18.649Z,5.8
2022-11-28T00:04:18.465Z,5.8
2022-11-28T00:05:18.590Z,5.8
2022-11-28T00:06:18.645Z,5.8
2022-11-28T00:07:18.789Z,5.8
2022-11-28T00:08:18.845Z,5.7
2022-11-28T00:09:18.936Z,5.7
2022-11-28T00:10:19.065Z,5.6
2022-11-28T00:11:19.267Z,5.6
2022-11-28T00:12:19.261Z,5.7
2022-11-28T00:13:19.362Z,5.6
2022-11-28T00:14:19.426Z,5.6
2022-11-28T00:15:19.575Z,5.6
2022-11-28T00:16:19.654Z,5.7
2022-11-28T00:17:19.745Z,5.7
2022-11-28T00:18:19.839Z,5.6
2022-11-28T00:19:19.941Z,5.5
2022-11-28T00:20:20.041Z,5.5
2022-11-28T00:21:20.144Z,5.5
2022-11-28T00:22:20.223Z,5.6
2022-11-28T00:23:20.356Z,5.5
2022-11-28T00:24:20.440Z,5.5
2022-11-28T00:25:20.581Z,5.5
2022-11-28T00:26:20.821Z,5.5
2022-11-28T00:27:20.759Z,5.5
2022-11-28T00:28:20.843Z,5.5
2022-11-28T00:29:20.955Z,5.6
2022-11-28T00:30:21.052Z,5.5
2022-11-28T00:31:21.151Z,5.5
2022-11-28T00:32:21.249Z,5.5
2022-11-28T00:33:21.232Z,5.5
2022-11-28T00:34:21.305Z,5.5
2022-11-28T00:35:21.378Z,5.5
2022-11-28T00:36:21.481Z,5.5
2022-11-28T00:37:21.503Z,5.5
2022-11-28T00:38:21.636Z,5.5
2022-11-28T00:39:21.698Z,5.4
2022-11-28T00:40:21.744Z,5.5
2022-11-28T00:41:21.820Z,5.5
2022-11-28T00:42:22.015Z,5.4
2022-11-28T00:43:22.011Z,5.4
2022-11-28T00:44:22.032Z,5.4
2022-11-28T00:45:22.096Z,5.4
2022-11-28T00:46:22.163Z,5.3
2022-11-28T00:47:22.202Z,5.3
2022-11-28T00:48:22.254Z,5.3
2022-11-28T00:49:22.337Z,5.4
2022-11-28T00:50:22.429Z,5.4
2022-11-28T00:51:22.513Z,5.4
2022-11-28T00:52:22.497Z,5.4
2022-11-28T00:53:22.571Z,5.3
2022-11-28T00:54:22.627Z,5.3
2022-11-28T00:55:22.690Z,5.3
2022-11-28T00:56:22.790Z,5.4
2022-11-28T00:57:22.868Z,5.4
2022-11-28T00:58:22.987Z,5.4
2022-11-28T00:59:22.940Z,5.4
2022-11-28T01:00:23.013Z,5.4
2022-11-28T01:01:23.161Z,5.3
2022-11-28T01:02:23.171Z,5.3
2022-11-28T01:03:23.213Z,5.4
2022-11-28T01:04:23.282Z,5.4
2022-11-28T01:05:23.353Z,5.4
2022-11-28T01:06:23.394Z,5.3
2022-11-28T01:07:23.510Z,5.4
2022-11-28T01:08:23.589Z,5.4
2022-11-28T01:09:23.657Z,5.4
2022-11-28T01:10:23.723Z,5.4
2022-11-28T01:11:23.814Z,5.3
2022-11-28T01:12:23.831Z,5.3
2022-11-28T01:13:23.893Z,5.3
2022-11-28T01:14:24.129Z,5.3
2022-11-28T01:15:24.058Z,5.3
2022-11-28T01:16:24.175Z,5.3
2022-11-28T01:17:24.166Z,5.4
2022-11-28T01:18:24.263Z,5.3
2022-11-28T01:19:24.321Z,5.4
2022-11-28T01:20:24.404Z,5.3
2022-11-28T01:21:24.482Z,5.3
2022-11-28T01:22:24.537Z,5.3
2022-11-28T01:23:24.630Z,5.3
2022-11-28T01:24:24.709Z,5.3
2022-11-28T01:25:24.801Z,5.3
2022-11-28T01:26:24.847Z,5.3
2022-11-28T01:27:24.919Z,5.3
2022-11-28T01:28:25.014Z,5.3
2022-11-28T01:29:25.070Z,5.4
2022-11-28T01:30:25.322Z,5.3
2022-11-28T01:31:25.270Z,5.3
2022-11-28T01:32:25.360Z,5.3
2022-11-28T01:33:25.442Z,5.3
2022-11-28T01:34:25.558Z,5.3
2022-11-28T01:35:25.570Z,5.3
2022-11-28T01:36:25.660Z,5.3
2022-11-28T01:37:25.704Z,5.3
2022-11-28T01:38:25.767Z,5.3
2022-11-28T01:39:25.861Z,5.3
2022-11-28T01:40:25.934Z,5.2
2022-11-28T01:41:26.000Z,5.2
2022-11-28T01:42:26.059Z,5.2
2022-11-28T01:43:26.132Z,5.3
2022-11-28T01:44:26.256Z,5.3
2022-11-28T01:45:26.266Z,5.3
2022-11-28T01:46:26.464Z,5.3
2022-11-28T01:47:26.369Z,5.3
2022-11-28T01:48:26.390Z,5.3
2022-11-28T01:49:26.451Z,5.3
2022-11-28T01:50:26.544Z,5.3
2022-11-28T01:51:26.619Z,5.2
2022-11-28T01:52:26.688Z,5.3
2022-11-28T01:53:26.766Z,5.3
2022-11-28T01:54:26.820Z,5.3
2022-11-28T01:55:26.900Z,5.3
2022-11-28T01:56:26.936Z,5.3
2022-11-28T01:57:26.990Z,5.2
2022-11-28T01:58:27.039Z,5.2
2022-11-28T01:59:27.104Z,5.2
2022-11-28T02:00:27.203Z,5.2
2022-11-28T02:01:27.315Z,5.2
2022-11-28T02:02:27.505Z,5.2
2022-11-28T02:03:27.354Z,5.1
2022-11-28T02:04:27.444Z,5.1
2022-11-28T02:05:27.517Z,5
2022-11-28T02:06:27.550Z,5
2022-11-28T02:07:27.647Z,5
2022-11-28T02:08:27.682Z,5
2022-11-28T02:09:27.715Z,5
2022-11-28T02:10:27.819Z,5
2022-11-28T02:11:27.869Z,5
2022-11-28T02:12:27.941Z,5.1
2022-11-28T02:13:27.999Z,5
2022-11-28T02:14:28.083Z,5
2022-11-28T02:15:28.157Z,5
2022-11-28T02:16:28.255Z,5
2022-11-28T02:17:28.265Z,4.9
2022-11-28T02:18:28.474Z,5
2022-11-28T02:19:28.398Z,5
2022-11-28T02:20:28.535Z,5
2022-11-28T02:21:28.534Z,5
2022-11-28T02:22:28.582Z,4.9
2022-11-28T02:23:28.674Z,4.9
2022-11-28T02:24:28.739Z,4.9
2022-11-28T02:25:28.827Z,4.9
2022-11-28T02:26:28.877Z,4.9
2022-11-28T02:27:28.917Z,4.9
2022-11-28T02:28:28.977Z,4.9
2022-11-28T02:29:29.112Z,4.9
2022-11-28T02:30:29.119Z,4.9
2022-11-28T02:31:29.266Z,4.9
2022-11-28T02:32:29.248Z,4.9
2022-11-28T02:33:29.314Z,4.9
2022-11-28T02:34:29.582Z,4.9
2022-11-28T02:35:29.506Z,4.9
2022-11-28T02:36:29.545Z,4.9
2022-11-28T02:37:29.646Z,4.9
2022-11-28T02:38:29.691Z,4.9
2022-11-28T02:39:29.796Z,4.9
2022-11-28T02:40:29.887Z,4.9
2022-11-28T02:41:29.981Z,4.9
2022-11-28T02:42:30.036Z,4.9
2022-11-28T02:43:30.131Z,4.9
2022-11-28T02:44:30.145Z,4.9
2022-11-28T02:45:30.235Z,4.9
2022-11-28T02:46:30.347Z,4.9
2022-11-28T02:47:30.379Z,4.9
2022-11-28T02:48:30.412Z,4.9
2022-11-28T02:49:30.452Z,4.9
2022-11-28T02:50:30.662Z,4.8
2022-11-28T02:51:30.610Z,4.8
2022-11-28T02:52:30.716Z,4.8
2022-11-28T02:53:30.764Z,4.8
2022-11-28T02:54:30.824Z,4.9
2022-11-28T02:55:30.941Z,4.9
2022-11-28T02:56:31.494Z,5
2022-11-28T02:57:31.036Z,4.9
2022-11-28T02:58:31.126Z,5
2022-11-28T02:59:31.207Z,4.9
2022-11-28T03:00:31.347Z,4.9
2022-11-28T03:01:31.383Z,4.9
2022-11-28T03:02:31.471Z,4.9
2022-11-28T03:03:31.510Z,4.9
2022-11-28T03:04:31.555Z,4.9
2022-11-28T03:05:31.800Z,5
2022-11-28T03:06:33.122Z,5
2022-11-28T03:07:32.074Z,4.9
2022-11-28T03:09:07.763Z,5
2022-11-28T03:09:41.115Z,5
2022-11-28T03:10:31.979Z,5
2022-11-28T03:11:31.953Z,5
2022-11-28T03:12:32.070Z,4.9
2022-11-28T03:13:32.082Z,4.9
2022-11-28T03:14:32.175Z,5
2022-11-28T03:15:32.202Z,4.9
2022-11-28T03:16:32.711Z,4.9
2022-11-28T03:17:32.323Z,4.9
2022-11-28T03:18:32.367Z,4.9
2022-11-28T03:19:33.989Z,5
2022-11-28T03:20:32.492Z,4.9
2022-11-28T03:21:32.530Z,4.9
2022-11-28T03:22:33.033Z,4.9
2022-11-28T03:23:32.696Z,4.8
2022-11-28T03:24:33.362Z,4.9
2022-11-28T03:25:32.821Z,5
2022-11-28T03:26:33.486Z,4.9
2022-11-28T03:27:32.905Z,4.9
2022-11-28T03:28:40.666Z,4.9
2022-11-28T03:31:02.713Z,4.9
2022-11-28T03:31:33.226Z,4.9
2022-11-28T03:32:33.227Z,4.9
2022-11-28T03:33:33.304Z,4.9
2022-11-28T03:34:33.359Z,4.9
2022-11-28T03:35:33.434Z,4.9
2022-11-28T03:36:33.495Z,5
2022-11-28T03:37:33.600Z,4.9
2022-11-28T03:38:33.744Z,4.8
2022-11-28T03:39:33.696Z,4.9
2022-11-28T03:40:33.766Z,4.9
2022-11-28T03:41:34.773Z,4.9
2022-11-28T03:42:33.918Z,4.9
2022-11-28T03:43:33.999Z,4.9
2022-11-28T03:44:34.004Z,4.9
2022-11-28T03:45:34.092Z,4.8
2022-11-28T03:46:34.270Z,4.8
2022-11-28T03:47:34.323Z,4.8
2022-11-28T03:48:34.425Z,4.9
2022-11-28T03:49:34.452Z,4.9
2022-11-28T03:50:34.487Z,4.9
2022-11-28T03:51:34.627Z,4.9
2022-11-28T03:52:34.655Z,4.8
2022-11-28T03:53:34.712Z,4.9
2022-11-28T03:54:34.988Z,4.9
2022-11-28T03:55:34.945Z,5
2022-11-28T03:56:34.980Z,5
2022-11-28T03:57:35.013Z,5
2022-11-28T03:58:35.102Z,4.9
2022-11-28T03:59:35.169Z,4.8
2022-11-28T04:00:35.223Z,4.8
2022-11-28T04:01:35.391Z,4.8
2022-11-28T04:02:35.398Z,4.8
2022-11-28T04:03:35.435Z,4.8
2022-11-28T04:04:35.492Z,4.9
2022-11-28T04:05:35.578Z,4.9
2022-11-28T04:06:35.716Z,4.9
2022-11-28T04:07:35.814Z,4.9
2022-11-28T04:08:35.777Z,5
2022-11-28T04:09:35.850Z,5
2022-11-28T04:10:36.064Z,4.9
2022-11-28T04:11:36.027Z,4.9
2022-11-28T04:12:36.091Z,4.9
2022-11-28T04:13:36.161Z,4.9
2022-11-28T04:14:36.199Z,5
2022-11-28T04:15:36.292Z,4.9
2022-11-28T04:16:36.515Z,4.9
2022-11-28T04:17:36.438Z,4.9
2022-11-28T04:18:36.477Z,4.9
2022-11-28T04:19:36.508Z,4.9
2022-11-28T04:20:36.580Z,4.9
2022-11-28T04:21:36.673Z,4.9
2022-11-28T04:22:36.699Z,4.9
2022-11-28T04:23:36.774Z,4.9
2022-11-28T04:24:36.827Z,4.9
2022-11-28T04:25:36.895Z,4.9
2022-11-28T04:26:37.045Z,4.9
2022-11-28T04:27:36.981Z,5
2022-11-28T04:28:37.024Z,5
2022-11-28T04:29:37.081Z,5
2022-11-28T04:31:29.466Z,5
2022-11-28T04:31:42.484Z,5
2022-11-28T04:32:37.268Z,5
2022-11-28T04:33:37.333Z,5
2022-11-28T04:34:37.437Z,5.1
2022-11-28T04:35:37.500Z,5.1
2022-11-28T04:36:37.508Z,5.1
2022-11-28T04:37:37.611Z,5.1
2022-11-28T04:38:39.831Z,5.1
2022-11-28T04:39:37.754Z,5.1
2022-11-28T04:40:37.775Z,5.1
2022-11-28T04:41:37.849Z,5
2022-11-28T04:42:38.058Z,4.9
2022-11-28T04:44:38.039Z,5
2022-11-28T04:45:38.180Z,5
2022-11-28T04:46:38.195Z,5
2022-11-28T04:47:38.303Z,5.1
2022-11-28T04:48:38.314Z,5
2022-11-28T04:49:38.426Z,5
2022-11-28T04:50:38.471Z,5.1
2022-11-28T04:51:39.796Z,4.9
2022-11-28T04:52:38.612Z,5
2022-11-28T04:53:38.657Z,5
2022-11-28T04:54:38.746Z,5
2022-11-28T04:55:38.815Z,4.9
2022-11-28T04:56:38.894Z,4.9
2022-11-28T04:57:38.987Z,4.9
2022-11-28T04:58:39.140Z,4.8
2022-11-28T04:59:39.062Z,4.8
2022-11-28T05:00:39.212Z,4.8
2022-11-28T05:01:39.321Z,4.8
2022-11-28T05:02:39.372Z,4.8
2022-11-28T05:03:42.525Z,4.8
2022-11-28T05:04:39.889Z,4.8
2022-11-28T05:05:39.738Z,4.8
2022-11-28T05:06:39.619Z,4.8
2022-11-28T05:07:39.897Z,4.8
2022-11-28T05:08:39.715Z,4.8
2022-11-28T05:09:39.713Z,4.8
2022-11-28T05:10:39.762Z,4.8
2022-11-28T05:11:39.824Z,4.7
2022-11-28T05:12:39.889Z,4.7
2022-11-28T05:13:43.791Z,4.7
2022-11-28T05:14:44.493Z,4.7
2022-11-28T05:16:05.759Z,4.7
2022-11-28T05:16:42.661Z,4.7
2022-11-28T05:17:42.293Z,4.7
2022-11-28T05:18:40.379Z,4.7
2022-11-28T05:19:40.430Z,4.7
2022-11-28T05:20:40.441Z,4.7
2022-11-28T05:21:40.519Z,4.7
2022-11-28T05:22:40.653Z,4.7
2022-11-28T05:23:40.722Z,4.8
2022-11-28T05:24:40.853Z,4.8
2022-11-28T05:25:41.053Z,4.8
2022-11-28T05:26:40.903Z,4.8
2022-11-28T05:27:40.978Z,4.8
2022-11-28T05:28:41.088Z,4.9
2022-11-28T05:29:41.519Z,4.9
2022-11-28T05:30:41.147Z,4.8
2022-11-28T05:31:41.238Z,4.8
2022-11-28T05:32:41.259Z,4.8
2022-11-28T05:33:41.265Z,4.8
2022-11-28T05:34:41.537Z,4.8
2022-11-28T05:35:41.395Z,4.8
2022-11-28T05:36:41.453Z,4.8
2022-11-28T05:37:41.546Z,4.7
2022-11-28T05:38:41.616Z,4.6
2022-11-28T05:39:41.848Z,4.6
2022-11-28T05:40:48.836Z,4.7
2022-11-28T05:41:41.744Z,4.7
2022-11-28T05:42:41.909Z,4.8
2022-11-28T05:43:41.909Z,4.8
2022-11-28T05:44:42.077Z,4.8
2022-11-28T05:45:42.174Z,4.8
2022-11-28T05:46:42.049Z,4.8
2022-11-28T05:47:42.134Z,4.8
2022-11-28T05:48:42.186Z,4.9
2022-11-28T05:49:42.458Z,4.9
2022-11-28T05:50:42.303Z,4.8
2022-11-28T05:51:42.378Z,4.8
2022-11-28T05:52:42.489Z,4.8
2022-11-28T05:53:42.518Z,4.8
2022-11-28T05:54:42.582Z,4.8
2022-11-28T05:55:42.656Z,4.8
2022-11-28T05:56:42.769Z,4.8
2022-11-28T05:57:42.740Z,4.8
2022-11-28T05:58:42.805Z,4.8
2022-11-28T05:59:43.079Z,4.8
2022-11-28T06:00:42.972Z,4.8
2022-11-28T06:01:43.173Z,4.9
2022-11-28T06:02:43.097Z,4.8
2022-11-28T06:03:43.151Z,4.8
2022-11-28T06:04:43.275Z,4.8
2022-11-28T06:05:43.929Z,4.8
2022-11-28T06:06:43.390Z,4.9
2022-11-28T06:07:43.560Z,4.9
2022-11-28T06:08:43.520Z,4.9
2022-11-28T06:09:43.702Z,4.9
2022-11-28T06:10:43.652Z,4.9
2022-11-28T06:11:43.730Z,4.9
2022-11-28T06:12:43.813Z,4.9
2022-11-28T06:13:43.867Z,4.8
2022-11-28T06:14:43.924Z,4.8
2022-11-28T06:15:44.020Z,4.8
2022-11-28T06:16:44.150Z,4.8
2022-11-28T06:17:44.292Z,4.9
2022-11-28T06:18:44.274Z,4.9
2022-11-28T06:19:44.606Z,4.9
2022-11-28T06:20:44.377Z,4.9
2022-11-28T06:21:44.433Z,4.9
2022-11-28T06:22:44.534Z,4.9
2022-11-28T06:23:44.603Z,4.9
2022-11-28T06:24:44.696Z,4.9
2022-11-28T06:25:44.728Z,4.9
2022-11-28T06:26:44.825Z,4.9
2022-11-28T06:27:51.903Z,4.9
2022-11-28T06:28:44.946Z,4.9
2022-11-28T06:29:45.151Z,4.9
2022-11-28T06:30:45.123Z,4.9
2022-11-28T06:31:45.276Z,4.9
2022-11-28T06:32:45.256Z,4.9
2022-11-28T06:33:45.464Z,4.9
2022-11-28T06:34:45.461Z,4.9
2022-11-28T06:35:45.483Z,4.9
2022-11-28T06:36:45.573Z,4.9
2022-11-28T06:37:45.642Z,4.9
2022-11-28T06:38:45.726Z,4.9
2022-11-28T06:39:45.759Z,4.9
2022-11-28T06:40:45.896Z,4.8
2022-11-28T06:41:46.028Z,4.8
2022-11-28T06:42:46.033Z,4.8
2022-11-28T06:43:46.276Z,4.8
2022-11-28T06:44:46.267Z,4.8
2022-11-28T06:45:46.223Z,4.9
2022-11-28T06:46:46.401Z,4.9
2022-11-28T06:47:47.096Z,4.7
2022-11-28T06:48:46.420Z,4.7
2022-11-28T06:49:46.548Z,4.6
2022-11-28T06:50:46.585Z,4.6
2022-11-28T06:51:46.634Z,4.6
2022-11-28T06:52:46.651Z,4.7
2022-11-28T06:53:46.716Z,4.7
2022-11-28T06:54:54.869Z,4.7
2022-11-28T06:55:46.673Z,4.7
2022-11-28T06:56:46.762Z,4.7
2022-11-28T06:57:46.760Z,4.7
2022-11-28T06:58:46.816Z,4.7
2022-11-28T06:59:46.870Z,4.6
2022-11-28T07:00:46.970Z,4.6
2022-11-28T07:01:47.151Z,4.6
2022-11-28T07:02:47.113Z,4.7
2022-11-28T07:03:47.164Z,4.6
2022-11-28T07:04:47.266Z,4.5
2022-11-28T07:05:47.443Z,4.6
2022-11-28T07:06:47.412Z,4.5
2022-11-28T07:07:54.000Z,4.5
2022-11-28T07:08:47.573Z,4.6
2022-11-28T07:09:47.600Z,4.5
2022-11-28T07:10:47.685Z,4.5
2022-11-28T07:11:47.751Z,4.5
2022-11-28T07:12:47.804Z,4.5
2022-11-28T07:13:47.889Z,4.5
2022-11-28T07:14:47.926Z,4.5
2022-11-28T07:15:48.003Z,4.4
2022-11-28T07:16:48.136Z,4.4
2022-11-28T07:17:48.164Z,4.4
2022-11-28T07:18:48.278Z,4.5
2022-11-28T07:19:53.538Z,4.4
2022-11-28T07:20:48.390Z,4.4
2022-11-28T07:21:48.562Z,4.4
2022-11-28T07:22:48.527Z,4.4
2022-11-28T07:23:48.625Z,4.4
2022-11-28T07:24:48.722Z,4.4
2022-11-28T07:25:48.754Z,4.4
2022-11-28T07:26:49.291Z,4.4
2022-11-28T07:27:48.895Z,4.4
2022-11-28T07:28:49.009Z,4.4
2022-11-28T07:29:49.047Z,4.4
2022-11-28T07:30:49.130Z,4.5
2022-11-28T07:31:49.254Z,4.5
2022-11-28T07:32:49.753Z,4.4
2022-11-28T07:33:54.376Z,4.4
2022-11-28T07:34:50.297Z,4.5
2022-11-28T07:35:49.530Z,4.5
2022-11-28T07:36:49.567Z,4.5
2022-11-28T07:37:49.794Z,4.5
2022-11-28T07:38:49.731Z,4.5
2022-11-28T07:39:49.824Z,4.5
2022-11-28T07:40:49.902Z,4.5
2022-11-28T07:41:49.954Z,4.4
2022-11-28T07:42:51.102Z,4.4
2022-11-28T07:43:50.129Z,4.5
2022-11-28T07:44:50.233Z,4.5
2022-11-28T07:46:00.370Z,4.5
2022-11-28T07:46:50.422Z,4.5
2022-11-28T07:47:50.402Z,4.5
2022-11-28T07:48:50.488Z,4.5
2022-11-28T07:49:50.585Z,4.4
2022-11-28T07:50:50.630Z,4.4
2022-11-28T07:51:50.696Z,4.5
2022-11-28T07:52:50.786Z,4.6
2022-11-28T07:53:55.868Z,4.5
2022-11-28T07:54:50.866Z,4.5
2022-11-28T07:55:50.897Z,4.5
2022-11-28T07:57:16.196Z,4.5
2022-11-28T07:57:51.089Z,4.5
2022-11-28T07:58:51.133Z,4.5
2022-11-28T07:59:51.324Z,4.5
2022-11-28T08:00:51.182Z,4.5
2022-11-28T08:01:51.374Z,4.5
2022-11-28T08:02:52.305Z,4.5
2022-11-28T08:03:51.350Z,4.4
2022-11-28T08:04:55.035Z,4.4
2022-11-28T08:05:51.465Z,4.4
2022-11-28T08:06:51.504Z,4.4
2022-11-28T08:07:51.696Z,4.4
2022-11-28T08:08:51.714Z,4.4
2022-11-28T08:09:51.764Z,4.4
2022-11-28T08:10:51.731Z,4.4
2022-11-28T08:11:51.811Z,4.4
2022-11-28T08:12:51.836Z,4.3
2022-11-28T08:13:53.757Z,4.4
2022-11-28T08:14:52.122Z,4.4
2022-11-28T08:15:52.040Z,4.4
2022-11-28T08:16:52.215Z,4.4
2022-11-28T08:17:59.747Z,4.4
2022-11-28T08:20:29.522Z,4.4
2022-11-28T08:22:59.540Z,4.4
2022-11-28T08:25:29.584Z,4.5
2022-11-28T08:26:58.434Z,4.4
2022-11-28T08:27:58.502Z,4.5
2022-11-28T08:28:58.563Z,4.5
2022-11-28T08:29:58.652Z,4.5
2022-11-28T08:30:58.789Z,4.5
2022-11-28T08:31:58.789Z,4.5
2022-11-28T08:32:58.928Z,4.5
2022-11-28T08:33:58.981Z,4.5
2022-11-28T08:34:59.012Z,4.6
2022-11-28T08:35:59.124Z,4.6
2022-11-28T08:36:59.174Z,4.6
2022-11-28T08:38:01.933Z,4.5
2022-11-28T08:39:25.264Z,4.6
2022-11-28T08:39:59.380Z,4.6
2022-11-28T08:40:59.552Z,4.5
2022-11-28T08:41:59.510Z,4.5
2022-11-28T08:42:59.523Z,4.6
2022-11-28T08:45:17.888Z,4.6
2022-11-28T08:45:59.722Z,4.6
2022-11-28T08:46:59.821Z,4.6
2022-11-28T08:47:59.831Z,4.6
2022-11-28T08:48:59.943Z,4.7
2022-11-28T08:50:16.996Z,4.6
2022-11-28T08:51:00.095Z,4.6
2022-11-28T08:52:00.478Z,4.6
2022-11-28T09:00:57.958Z,4.6
2022-11-28T09:02:00.740Z,4.6
2022-11-28T09:03:25.641Z,4.6
2022-11-28T09:03:57.426Z,4.6
2022-11-28T09:04:57.408Z,4.7
2022-11-28T09:05:57.478Z,4.7
2022-11-28T09:06:57.554Z,4.7
2022-11-28T09:47:12.909Z,5
2022-11-28T09:48:12.839Z,5.1
2022-11-28T09:49:12.942Z,5
2022-11-28T09:50:13.006Z,5
2022-11-28T09:51:13.074Z,5
2022-11-28T09:52:13.184Z,5
2022-11-28T09:53:21.695Z,5
2022-11-28T09:54:13.261Z,5
2022-11-28T09:55:13.287Z,5.1
2022-11-28T09:56:13.377Z,5.1
2022-11-28T09:57:13.573Z,5
2022-11-28T09:59:23.312Z,5.1
2022-11-28T10:00:14.378Z,5.1
2022-11-28T10:01:13.654Z,5.1
2022-11-28T10:02:13.723Z,5.1
2022-11-28T10:03:13.836Z,5.1
2022-11-28T10:04:13.953Z,5.1
2022-11-28T10:05:13.953Z,5.1
2022-11-28T10:06:16.799Z,5.1
2022-11-28T10:07:14.109Z,5
2022-11-28T10:08:13.999Z,5
2022-11-28T12:58:47.450Z,5
2022-11-28T14:45:33.750Z,5
2022-11-28T15:03:25.119Z,6.3
2022-11-28T15:04:25.104Z,6.3
2022-11-28T15:05:25.154Z,6.3
2022-11-28T15:06:25.185Z,6.4
2022-11-28T15:07:25.310Z,6.4
2022-11-28T16:14:32.087Z,6.6
2022-11-28T16:15:32.111Z,6.6
2022-11-28T16:17:32.149Z,6.6
2022-11-28T16:18:32.214Z,6.6
2022-11-28T16:19:32.285Z,6.6
2022-11-28T16:20:32.353Z,6.5
2022-11-28T16:21:32.376Z,6.5
2022-11-28T16:22:32.438Z,6.5
2022-11-28T16:23:32.543Z,6.5
2022-11-28T16:43:34.092Z,6.5
2022-11-28T16:44:33.361Z,6.5
2022-11-28T16:45:33.485Z,6.5
2022-11-28T16:46:33.586Z,6.5
2022-11-28T16:47:33.690Z,6.5
2022-11-28T16:48:34.103Z,6.4
2022-11-28T16:49:33.972Z,6.5
2022-11-28T16:50:34.000Z,6.5
2022-11-28T16:51:41.907Z,6.6
2022-11-28T16:52:42.352Z,6.6
2022-11-28T16:53:43.057Z,6.6
2022-11-28T16:55:34.223Z,6.6
2022-11-28T16:56:41.092Z,6.5
2022-11-28T16:57:41.553Z,6.5
2022-11-28T16:58:35.089Z,6.5
2022-11-28T17:00:56.875Z,6.6
2022-11-28T17:02:37.658Z,6.6
2022-11-28T17:03:39.741Z,6.5
2022-11-28T17:04:35.137Z,6.6
2022-11-28T17:06:38.861Z,6.6
2022-11-28T17:08:35.135Z,6.6
2022-11-28T17:10:41.939Z,6.6
2022-11-28T17:11:35.194Z,6.6
2022-11-28T17:12:35.262Z,6.6
2022-11-28T17:13:42.354Z,6.6
2022-11-28T17:14:35.476Z,6.6
2022-11-28T17:15:35.437Z,6.6
2022-11-28T18:05:19.192Z,6.7
2022-11-28T18:06:18.112Z,6.7
2022-11-28T18:51:07.462Z,6.8
2022-11-28T18:52:07.509Z,6.9
2022-11-28T18:53:07.560Z,6.9
2022-11-28T18:54:07.664Z,6.9
2022-11-28T18:55:38.563Z,6.9
2022-11-28T18:56:30.820Z,6.9
2022-11-28T18:57:07.808Z,6.9
2022-11-28T18:59:49.985Z,6.8
2022-11-28T19:24:59.189Z,6.7
2022-11-28T19:25:59.218Z,6.8
2022-11-28T19:26:59.260Z,6.8
2022-11-28T19:27:59.330Z,6.8
2022-11-28T22:54:05.513Z,7.1
2022-11-28T22:55:05.514Z,7.1
2022-11-28T22:56:05.522Z,7.1
2022-11-28T22:57:10.564Z,7.1
2022-11-28T22:58:05.881Z,7.1
2022-11-28T22:59:05.684Z,7.1
2022-11-28T23:00:05.723Z,7.1
2022-11-28T23:01:05.731Z,7.1
2022-11-28T23:02:05.921Z,7.1
2022-11-28T23:03:05.913Z,7.2
2022-11-28T23:04:05.878Z,7.2
2022-11-28T23:05:05.932Z,7.2
2022-11-28T23:06:05.943Z,7.2
2022-11-28T23:07:05.995Z,7.2
2022-11-28T23:08:06.062Z,7.2
2022-11-28T23:09:14.316Z,7.2
2022-11-28T23:10:07.064Z,7.2
2022-11-28T23:11:06.244Z,7.2
2022-11-28T23:13:06.765Z,7.2
2022-11-28T23:13:15.103Z,7.2
2022-11-28T23:14:06.370Z,7.2
2022-11-28T23:15:06.429Z,7.1
2022-11-28T23:16:06.474Z,7.1
2022-11-28T23:17:06.472Z,7.2
2022-11-28T23:18:06.539Z,7.2
2022-11-28T23:19:08.379Z,7.1
2022-11-28T23:20:06.612Z,7.1
2022-11-28T23:21:06.661Z,7.1
2022-11-28T23:22:06.670Z,7.1
2022-11-28T23:23:06.709Z,7.1
2022-11-28T23:24:06.822Z,7.1
2022-11-28T23:25:11.829Z,7.1
2022-11-28T23:26:07.071Z,7.1
2022-11-28T23:27:07.018Z,7.1
2022-11-28T23:28:07.110Z,7.1
2022-11-28T23:29:07.125Z,7.1
2022-11-28T23:30:07.236Z,7.1
2022-11-28T23:31:08.552Z,7.1
2022-11-28T23:32:12.360Z,7.1
2022-11-28T23:33:07.452Z,7.1
2022-11-28T23:34:07.505Z,7.1
2022-11-28T23:35:07.592Z,7.1
2022-11-28T23:36:07.702Z,7.1
2022-11-28T23:37:07.726Z,7.1
2022-11-28T23:38:07.848Z,7.1
2022-11-28T23:39:07.876Z,7.1
2022-11-28T23:40:07.956Z,7.1
2022-11-28T23:41:08.030Z,7.1
2022-11-28T23:42:08.101Z,7.1
2022-11-28T23:43:08.634Z,7.1
2022-11-28T23:44:08.105Z,7.1
2022-11-28T23:45:08.130Z,7.1
2022-11-28T23:46:08.238Z,7.1
2022-11-28T23:47:08.230Z,7.1
2022-11-28T23:48:08.293Z,7.1
2022-11-28T23:49:10.112Z,7.1
2022-11-28T23:50:08.379Z,7.1
2022-11-28T23:51:08.358Z,7.1
2022-11-28T23:52:08.559Z,7.1
2022-11-28T23:53:08.428Z,7.1
2022-11-28T23:54:08.468Z,7.1
2022-11-28T23:55:08.482Z,7.1
2022-11-28T23:56:08.550Z,7.1
2022-11-28T23:57:08.648Z,7.1
2022-11-28T23:58:08.658Z,7.1
2022-11-28T23:59:08.691Z,7.1
